Parma — V2OZ9 — position and weather

sailwx.info

Track history (hours):
 
Tides and Currents Weather Stations Pressure Air Temp Water Temp Dewpoint Dewpoint Depression Visibility Wind Speed Wind Dir Waves Ship Positions

Parma

Last reported at 2016-Jul-01 22:33 UTC. Time now 2016-Jul-01 22:40 UTC.
Position N 44°23' E 012°48'.

MMSI: 279073176.

Date/timePositionNaut miles runAvg speedWind from/ knotsBaromVisibWave heightAir tempDewpointWater temp
2016-Jul-01 22:33N 44°23' E 012°48'1110.6
2016-Jul-01 21:33N 44°29' E 012°35'1010.0
2016-Jul-01 20:33N 44°30' E 012°21'5 4.3
2016-Jul-01 19:25N 44°28' E 012°15'0 0.0
2016-Jul-01 18:25N 44°28' E 012°15'0 0.0
2016-Jul-01 17:32N 44°28' E 012°15'0 0.0
2016-Jul-01 16:33N 44°28' E 012°15'0 0.0
2016-Jul-01 15:33N 44°28' E 012°15'0 0.0
2016-Jul-01 14:24N 44°28' E 012°15'0 0.0
2016-Jul-01 02:32N 44°28' E 012°15'0 0.0
2016-Jun-30 21:23N 44°28' E 012°15'0 0.0
2016-Jun-30 20:33N 44°28' E 012°15'0 0.0
2016-Jun-30 19:34N 44°28' E 012°15'0 0.0
2016-Jun-30 18:33N 44°28' E 012°15'0 0.0
2016-Jun-30 17:33N 44°28' E 012°15'0 0.0
2016-Jun-30 13:25N 44°28' E 012°15'1 0.1
2016-Jun-30 02:07N 44°27' E 012°16'0 0.0
2016-Jun-30 00:25N 44°27' E 012°16'0 0.0
2016-Jun-29 23:19N 44°27' E 012°16'0 0.0
2016-Jun-29 22:31N 44°27' E 012°16'0 0.0
2016-Jun-29 01:31N 44°27' E 012°16'0 0.0
2016-Jun-29 00:31N 44°27' E 012°16'0 0.0
2016-Jun-28 23:31N 44°27' E 012°16'0 0.0
2016-Jun-28 22:31N 44°27' E 012°16'0 0.0
2016-Jun-28 21:31N 44°27' E 012°16'0 0.0
2016-Jun-28 20:31N 44°27' E 012°16'  
2016-Jun-24 18:07N 37°36' E 024°08'9 9.6
2016-Jun-24 17:09N 37°44' E 024°14'285 9.6
2016-Jun-23 11:26N 40°51' E 028°52'301 9.1
2016-Jun-22 02:17N 45°40' E 030°47'8 9.7
2016-Jun-22 01:29N 45°47' E 030°50'10 9.7
2016-Jun-22 00:25N 45°58' E 030°52'910.1
2016-Jun-21 23:33N 46°06' E 030°52'  
Track history (hours):
 
Tides and Currents Weather Stations Pressure Air Temp Water Temp Dewpoint Dewpoint Depression Visibility Wind Speed Wind Dir Waves Ship Positions

Parma

Last reported at 2016-Jul-01 22:33 UTC. Time now 2016-Jul-01 22:40 UTC.
Position N 44°23' E 012°48'.

MMSI: 279073176.

Date/timePositionNaut miles runAvg speedWind from/ knotsBaromVisibWave heightAir tempDewpointWater temp
2016-Jul-01 22:33N 44°23' E 012°48'1110.6
2016-Jul-01 21:33N 44°29' E 012°35'1010.0
2016-Jul-01 20:33N 44°30' E 012°21'5 4.3
2016-Jul-01 19:25N 44°28' E 012°15'0 0.0
2016-Jul-01 18:25N 44°28' E 012°15'0 0.0
2016-Jul-01 17:32N 44°28' E 012°15'0 0.0
2016-Jul-01 16:33N 44°28' E 012°15'0 0.0
2016-Jul-01 15:33N 44°28' E 012°15'0 0.0
2016-Jul-01 14:24N 44°28' E 012°15'0 0.0
2016-Jul-01 02:32N 44°28' E 012°15'0 0.0
2016-Jun-30 21:23N 44°28' E 012°15'0 0.0
2016-Jun-30 20:33N 44°28' E 012°15'0 0.0
2016-Jun-30 19:34N 44°28' E 012°15'0 0.0
2016-Jun-30 18:33N 44°28' E 012°15'0 0.0
2016-Jun-30 17:33N 44°28' E 012°15'0 0.0
2016-Jun-30 13:25N 44°28' E 012°15'1 0.1
2016-Jun-30 02:07N 44°27' E 012°16'0 0.0
2016-Jun-30 00:25N 44°27' E 012°16'0 0.0
2016-Jun-29 23:19N 44°27' E 012°16'0 0.0
2016-Jun-29 22:31N 44°27' E 012°16'0 0.0
2016-Jun-29 01:31N 44°27' E 012°16'0 0.0
2016-Jun-29 00:31N 44°27' E 012°16'0 0.0
2016-Jun-28 23:31N 44°27' E 012°16'0 0.0
2016-Jun-28 22:31N 44°27' E 012°16'0 0.0
2016-Jun-28 21:31N 44°27' E 012°16'0 0.0
2016-Jun-28 20:31N 44°27' E 012°16'  
2016-Jun-24 18:07N 37°36' E 024°08'9 9.6
2016-Jun-24 17:09N 37°44' E 024°14'285 9.6
2016-Jun-23 11:26N 40°51' E 028°52'301 9.1
2016-Jun-22 02:17N 45°40' E 030°47'8 9.7
2016-Jun-22 01:29N 45°47' E 030°50'10 9.7
2016-Jun-22 00:25N 45°58' E 030°52'910.1
2016-Jun-21 23:33N 46°06' E 030°52'  

Dump ship's entire track history